• Join FlightAware (Why Join?)
  • Login
  • US Flag 
10:10AM EDT


 

Airport Tracker/Info


-or-


 

Live Flight TrackerFlight Track Log ✈ SWA286 ✈ 05-Apr-2013 ✈ KISP - KBWI

Flight Track Log - Related Links

Times and Time Zones

All times are in EDT time to prevent confusion due to time zone crossing. See the SWA286 flight status page for this flight to view local times or setup timezone preferences in your user account.

Time Position Orientation Groundspeed Altitude Reporting Facility
EDT Latitude Longitude Course Direction KTS MPH feet Rate Location/Type
03:18PM 40.8167 -73.1333 90° East 162 186 2,000  Level New York TRACON
03:19PM 40.8500 -73.1000 37° Northeast 260 299 5,400 2,340 Climbing New York TRACON
03:21PM 40.8592 -72.9450 85° East 310 357 8,000 960 Climbing Boston Center
03:22PM 40.8597 -72.8325 90° East 310 357 8,000  Level Boston Center
03:23PM 40.8225 -72.7336 116° Southeast 289 333 8,000  Level Boston Center
03:24PM 40.7667 -72.8871 90° East  Level FlightAware Approximate
03:24PM 40.7767 -72.6375 122° Southeast 296 341 8,000  Level Boston Center
03:25PM 40.6978 -72.6208 171° South 290 334 11,200 3,120 Climbing Boston Center
03:26PM 40.6286 -72.7000 221° Southwest 241 277 14,300 3,540 Climbing Boston Center
03:27PM 40.5578 -72.7789 220° Southwest 298 343 18,300 3,660 Climbing Boston Center
03:28PM 40.4739 -72.8711 220° Southwest 336 387 21,700 3,120 Climbing Boston Center
03:29PM 40.3967 -72.9550 220° Southwest 355 409 24,700 3,000 Climbing Boston Center
03:30PM 40.3253 -73.0333 220° Southwest 357 411 27,800 1,500 Climbing Boston Center
03:31PM 40.2497 -73.1197 221° Southwest 328 377 28,000 60 Climbing Boston Center
03:33PM 40.1261 -73.2608 221° Southwest 281 323 28,000  Level Washington Center
03:34PM 40.0628 -73.3281 219° Southwest 292 336 28,000  Level Washington Center
03:35PM 39.9997 -73.3978 220° Southwest 297 342 28,000  Level Washington Center
03:36PM 39.9403 -73.4617 219° Southwest 303 349 28,000  Level Washington Center
03:37PM 39.8769 -73.5314 220° Southwest 303 349 28,000  Level Washington Center
03:38PM 39.8117 -73.6033 220° Southwest 313 360 28,000  Level Washington Center
03:39PM 39.7461 -73.6728 219° Southwest 313 360 28,000  Level Washington Center
03:40PM 39.6825 -73.7419 220° Southwest 313 360 28,000  Level Washington Center
03:41PM 39.6169 -73.8108 219° Southwest 308 354 28,000  Level Washington Center
03:42PM 39.5553 -73.8769 220° Southwest 308 354 28,000  Level Washington Center
03:43PM 39.4897 -73.9458 219° Southwest 308 354 28,000 -120 Level Washington Center
03:44PM 39.4258 -74.0172 221° Southwest 308 354 27,800 -1,140 Descending Washington Center
03:45PM 39.3622 -74.0856 220° Southwest 308 354 25,800 -2,820 Descending Washington Center
03:46PM 39.2922 -74.1622 220° Southwest 314 361 22,200 -2,100 Descending Washington Center
03:47PM 39.2181 -74.2306 216° Southwest 327 376 21,700 -480 Descending Washington Center
03:48PM 39.1650 -74.3253 234° Southwest 327 376 21,300 -360 Descending Washington Center
03:49PM 39.1222 -74.4306 242° Southwest 328 377 21,000 -180 Descending Washington Center
03:50PM 39.0817 -74.5353 244° Southwest 333 383 21,000 -120 Level Washington Center
03:51PM 39.0408 -74.6403 243° Southwest 333 383 20,800 -600 Descending Washington Center
03:52PM 39.0019 -74.7394 243° Southwest 328 377 19,800 -960 Descending Washington Center
03:53PM 38.9608 -74.8414 243° Southwest 323 372 18,900 -1,020 Descending Washington Center
03:54PM 38.9178 -74.9433 242° Southwest 328 377 17,800 -1,080 Descending Washington Center
03:55PM 38.8786 -75.0450 244° Southwest 328 377 16,800 -900 Descending Washington Center
03:56PM 38.8394 -75.1467 244° Southwest 328 377 16,000 -1,080 Descending Washington Center
03:57PM 38.8086 -75.2506 249° West 323 372 14,700 -1,020 Descending Washington Center
03:58PM 38.8006 -75.3572 264° West 312 359 14,000 -360 Descending Washington Center
03:59PM 38.7944 -75.4639 266° West 312 359 14,000  Level Washington Center
04:00PM 38.7883 -75.5703 266° West 312 359 14,000  Level Washington Center
04:01PM 38.7819 -75.6822 266° West 312 359 14,000 -300 Level Washington Center
04:02PM 38.7756 -75.7914 266° West 312 359 13,400 -840 Descending Washington Center
04:03PM 38.7669 -75.8978 264° West 312 359 12,400 -1,080 Descending Washington Center
04:04PM 38.7583 -76.0017 264° West 312 359 11,300 -720 Descending Washington Center
04:05PM 38.7558 -76.1028 268° West 302 348 11,000 -1,020 Descending Washington Center
04:07PM 38.8167 -76.2333 301° West 266 306 8,700 -1,320 Descending Potomac TRACON
04:07PM 38.8219 -76.2550 287° West 255 293 8,400 -1,260 Descending Washington Center
04:08PM 38.8778 -76.3275 315° West 255 293 6,900 -1,680 Descending Washington Center
04:09PM 38.9211 -76.3947 310° West 250 288 5,100 -1,260 Descending Washington Center
04:10PM 38.9333 -76.4500 286° West 240 276 5,000 -360 Descending Potomac TRACON
04:10PM 38.9333 -76.5000 270° West 207 238 4,600 -660 Descending Potomac TRACON
04:11PM 38.9667 -76.5500 311° West 200 230 3,800 -960 Descending Potomac TRACON
04:12PM 39.0167 -76.5667 345° North 197 227 2,700 -720 Descending Potomac TRACON
04:13PM 39.0667 -76.6000 333° Northwest 192 221 2,400 -600 Descending Potomac TRACON
04:14PM 39.1167 -76.6167 346° North 162 186 1,600 -900 Descending Potomac TRACON
04:15PM 39.1500 -76.6500 322° Northwest 132 152 700 -900 Descending Potomac TRACON